Rapports METAR proches de la station

 

LFQQ - LiILLE/Lesquin, France
Distance from station: SE 22km
Updated: 17-Jun-2018 23:06 CEST
Overcast
Overcast
 Wind from SW
Wind: SW 9 km/h
Temperature: 16°C
Dew Point: 10°C
Humidity: 68%
Barometer: 1020 hPa
Clouds: Overcast
Visibility: 10 km
Cloud details: Mostly Cloudy 1128 m
Overcast 1585 m
2018/06/17 21:30 LFQQ 172130Z AUTO 23005KT 9999 BKN037 OVC052 16/10 Q1020 NOSIG
EBFN - KOKSIJDE, Belgique
Distance from station: NNW 42km
Updated: 17-Jun-2018 23:06 CEST
Overcast
Overcast
 Wind from SW
Wind: SW 20 km/h
Temperature: 16°C
Dew Point: 11°C
Humidity: 72%
Barometer: 1019 hPa
Clouds: Overcast
Visibility: 10 km
Cloud details: Overcast 610 m
2018/06/17 21:25 EBFN 172125Z AUTO 23011KT 9999 OVC020/// 16/11 Q1019 WHT
 
EBOS - OOSTENDE Airport, Belgique
Distance from station: N 53km
Updated: 17-Jun-2018 23:06 CEST
Mostly Cloudy
Mostly Cloudy
 Wind from SW
Wind: SW 20 km/h
Temperature: 15°C
Dew Point: 10°C
Humidity: 72%
Barometer: 1019 hPa
Clouds: Mostly Cloudy
Visibility: 10 km
Cloud details: Mostly Cloudy 610 m
Mostly Cloudy 884 m
2018/06/17 21:50 EBOS 172150Z 23011KT 9999 BKN020 BKN029 15/10 Q1019 TEMPO BKN009
EBCV - CHIEVRES, Belgique
Distance from station: ESE 66km
Updated: 17-Jun-2018 23:06 CEST
Overcast
Overcast
 Wind from SSW
Wind: SSW 6 km/h
Temperature: 15°C
Dew Point: 12°C
Humidity: 82%
Barometer: 1020 hPa
Clouds: Overcast
Visibility: 10 km
Cloud details: Overcast 1006 m
2018/06/17 21:25 EBCV 172125Z AUTO 20003KT 9999 OVC033/// 15/12 Q1020 BLU
 
LFAQ - BRAY, France
Distance from station: S 86km
Updated: 17-Jun-2018 23:06 CEST
Overcast
Overcast
 Wind from W
Wind: W 4 km/h
Temperature: 15°C
Dew Point: 12°C
Humidity: 82%
Barometer: 1020 hPa
Clouds: Overcast
Visibility: 10 km
Cloud details: Overcast 1189 m
2018/06/17 21:30 LFAQ 172130Z AUTO 28002KT 9999 OVC039 15/12 Q1020
EHFS - VLISSINGEN, Pays-Bas
Distance from station: NNE 93km
Updated: 17-Jun-2018 23:06 CEST
Overcast
Overcast
 Wind from SW
Wind: SW 30 km/h
Temperature: 16°C
Dew Point: 11°C
Humidity: 72%
Barometer: 1019 hPa
Clouds: Overcast
Visibility: 10 km
Cloud details: Overcast 762 m
2018/06/17 21:25 EHFS 172125Z AUTO 22016KT 9999 OVC025/// 16/11 Q1019 W///H///
 
LFAT - Le TOUQUET/Paris Plage, France
Distance from station: WSW 114km
Updated: 17-Jun-2018 23:06 CEST
Overcast
Overcast
 Wind from S
Wind: S 7 km/h
Temperature: 16°C
Dew Point: 13°C
Humidity: 83%
Barometer: 1020 hPa
Clouds: Overcast
Visibility: 10 km
Cloud details: Overcast 701 m
2018/06/17 21:30 LFAT 172130Z AUTO 17004KT 140V200 9999 OVC023 16/13 Q1020
EBCI - CHARLEROI/BXL sud, Belgique
Distance from station: ESE 112km
Updated: 17-Jun-2018 23:06 CEST
Mostly Cloudy
Mostly Cloudy
 Wind from SSW
Wind: SSW 9 km/h
Temperature: 16°C
Dew Point: 11°C
Humidity: 72%
Barometer: 1021 hPa
Clouds: Mostly Cloudy
Visibility: 10 km
Cloud details: Mostly Cloudy 1067 m
2018/06/17 21:50 EBCI 172150Z 20005KT 9999 BKN035 16/11 Q1021 NOSIG
 
EBBR - BRUXELLES National, Belgique
Distance from station: E 113km
Updated: 17-Jun-2018 23:06 CEST
Mostly Cloudy
Mostly Cloudy
 Wind from SW
Wind: SW 6 km/h
Temperature: 15°C
Dew Point: 11°C
Humidity: 77%
Barometer: 1020 hPa
Clouds: Mostly Cloudy
Visibility: 10 km
Cloud details: Mostly Cloudy 975 m
2018/06/17 21:50 EBBR 172150Z 23003KT 9999 BKN032 15/11 Q1020 NOSIG

Metar display script from Saratoga-Weather.org